createdAt,value
2017-07-28T00:01:30.761Z,99426.54
2017-07-28T00:04:34.805Z,99429.97
2017-07-28T00:07:38.146Z,99441.38
2017-07-28T00:10:41.450Z,99433.72
2017-07-28T00:13:45.535Z,99435.55
2017-07-28T00:16:48.815Z,99437.42
2017-07-28T00:19:52.127Z,99438.81
2017-07-28T00:22:55.429Z,99447.36
2017-07-28T00:25:58.750Z,99449.66
2017-07-28T00:29:03.178Z,99456.36
2017-07-28T00:32:07.222Z,99446.88
2017-07-28T00:35:10.561Z,99452.34
2017-07-28T00:38:13.863Z,99446.30
2017-07-28T00:41:17.201Z,99436.22
2017-07-28T00:44:20.500Z,99441.12
2017-07-28T00:47:23.829Z,99445.53
2017-07-28T00:50:27.117Z,99440.53
2017-07-28T00:53:30.457Z,99434.02
2017-07-28T00:56:34.497Z,99435.12
2017-07-28T00:59:37.833Z,99424.66
2017-07-28T01:02:41.272Z,99440.20
2017-07-28T01:05:45.350Z,99432.44
2017-07-28T01:08:48.691Z,99433.39
2017-07-28T01:11:52.757Z,99436.78
2017-07-28T01:14:56.090Z,99434.38
2017-07-28T01:17:59.403Z,99437.70
2017-07-28T01:21:02.736Z,99446.88
2017-07-28T01:24:06.002Z,99440.77
2017-07-28T01:27:09.341Z,99451.24
2017-07-28T01:30:12.681Z,99461.81
2017-07-28T01:33:16.752Z,99461.56
2017-07-28T01:36:20.067Z,99465.77
2017-07-28T01:39:23.368Z,99466.05
2017-07-28T01:42:26.702Z,99459.08
2017-07-28T01:45:29.987Z,99457.05
2017-07-28T01:48:33.326Z,99455.87
2017-07-28T01:51:36.623Z,99460.14
2017-07-28T01:54:39.934Z,99467.49
2017-07-28T01:57:43.376Z,99474.39
2017-07-28T02:00:46.662Z,99483.55
2017-07-28T02:03:50.877Z,99477.41
2017-07-28T02:06:54.946Z,99488.97
2017-07-28T02:09:58.285Z,99492.86
2017-07-28T02:13:01.587Z,99491.39
2017-07-28T02:16:05.841Z,99502.23
2017-07-28T02:19:09.148Z,99498.95
2017-07-28T02:22:12.480Z,99500.37
2017-07-28T02:25:15.788Z,99500.97
2017-07-28T02:28:19.862Z,99508.02
2017-07-28T02:31:23.138Z,99513.20
2017-07-28T02:34:26.441Z,99518.27
2017-07-28T02:37:29.730Z,99516.37
2017-07-28T02:40:33.065Z,99521.95
2017-07-28T02:43:36.345Z,99519.38
2017-07-28T02:46:39.696Z,99517.96
2017-07-28T02:49:43.020Z,99517.45
2017-07-28T02:52:46.335Z,99515.58
2017-07-28T02:55:49.609Z,99511.47
2017-07-28T02:58:52.922Z,99517.49
2017-07-28T03:01:56.360Z,99526.44
2017-07-28T03:05:00.408Z,99511.98
2017-07-28T03:08:03.733Z,99517.70
2017-07-28T03:11:07.014Z,99520.72
2017-07-28T03:14:10.330Z,99522.42
2017-07-28T03:17:13.605Z,99517.40
2017-07-28T03:20:16.944Z,99524.66
2017-07-28T03:23:20.999Z,99532.41
2017-07-28T03:26:24.306Z,99540.36
2017-07-28T03:29:27.620Z,99535.78
2017-07-28T03:32:30.919Z,99542.56
2017-07-28T03:35:34.231Z,99541.03
2017-07-28T03:38:37.540Z,99543.00
2017-07-28T03:41:41.657Z,99545.45
2017-07-28T03:44:45.715Z,99542.98
2017-07-28T03:47:49.029Z,99556.75
2017-07-28T03:50:52.306Z,99558.00
2017-07-28T03:53:55.656Z,99550.44
2017-07-28T03:56:59.861Z,99565.45
2017-07-28T04:00:03.168Z,99560.02
2017-07-28T04:03:06.508Z,99575.38
2017-07-28T04:06:09.808Z,99568.50
2017-07-28T04:09:13.136Z,99571.24
2017-07-28T04:12:16.414Z,99565.99
2017-07-28T04:15:19.726Z,99560.34
2017-07-28T04:18:23.029Z,99554.23
2017-07-28T04:21:26.368Z,99555.38
2017-07-28T04:24:29.681Z,99555.89
2017-07-28T04:27:33.016Z,99564.22
2017-07-28T04:30:36.317Z,99559.97
2017-07-28T04:33:39.658Z,99556.27
2017-07-28T04:36:42.978Z,99559.79
2017-07-28T04:39:46.286Z,99558.86
2017-07-28T04:42:49.728Z,99567.31
2017-07-28T04:45:53.838Z,99570.05
2017-07-28T04:48:57.940Z,99578.89
2017-07-28T04:52:01.235Z,99579.19
2017-07-28T04:55:04.553Z,99592.10
2017-07-28T04:58:08.599Z,99585.06
2017-07-28T05:01:11.907Z,99580.07
2017-07-28T05:04:15.345Z,99596.36
2017-07-28T05:07:18.632Z,99588.70
2017-07-28T05:10:22.046Z,99583.97
2017-07-28T05:13:26.116Z,99577.87
2017-07-28T05:16:29.452Z,99583.16
2017-07-28T05:19:33.532Z,99583.03
2017-07-28T05:22:36.845Z,99592.64
2017-07-28T05:25:40.409Z,99597.98
2017-07-28T05:28:43.694Z,99587.29
2017-07-28T05:31:47.006Z,99590.43
2017-07-28T05:34:50.312Z,99591.53
2017-07-28T05:37:53.625Z,99586.52
2017-07-28T05:40:56.905Z,99594.73
2017-07-28T05:44:00.240Z,99596.55
2017-07-28T05:47:04.309Z,99594.80
2017-07-28T05:50:07.644Z,99607.11
2017-07-28T05:53:10.981Z,99614.97
2017-07-28T05:56:14.258Z,99612.30
2017-07-28T05:59:18.441Z,99618.34
2017-07-28T06:02:21.749Z,99620.01
2017-07-28T06:05:25.062Z,99620.66
2017-07-28T06:08:29.129Z,99614.08
2017-07-28T06:11:32.441Z,99624.23
2017-07-28T06:14:35.741Z,99638.62
2017-07-28T06:17:39.088Z,99641.47
2017-07-28T06:20:42.510Z,99641.72
2017-07-28T06:23:45.785Z,99627.36
2017-07-28T06:26:49.770Z,99620.33
2017-07-28T06:29:53.834Z,99628.83
2017-07-28T06:32:57.143Z,99623.66
2017-07-28T06:36:00.422Z,99635.11
2017-07-28T06:39:03.780Z,99631.77
2017-07-28T06:42:07.061Z,99628.03
2017-07-28T06:45:11.133Z,99646.33
2017-07-28T06:48:14.553Z,99649.41
2017-07-28T06:51:17.839Z,99658.57
2017-07-28T06:54:21.149Z,99674.02
2017-07-28T06:57:24.447Z,99659.60
2017-07-28T07:00:27.782Z,99661.61
2017-07-28T07:03:31.088Z,99668.14
2017-07-28T07:06:34.425Z,99672.78
2017-07-28T07:09:37.918Z,99673.16
2017-07-28T07:12:41.199Z,99687.03
2017-07-28T07:15:44.506Z,99694.79
2017-07-28T07:18:47.809Z,99692.53
2017-07-28T07:21:51.128Z,99702.20
2017-07-28T07:24:54.406Z,99705.04
2017-07-28T07:27:57.714Z,99700.59
2017-07-28T07:31:00.998Z,99686.53
2017-07-28T07:34:04.310Z,99692.55
2017-07-28T07:37:07.591Z,99691.41
2017-07-28T07:40:10.904Z,99684.07
2017-07-28T07:43:15.293Z,99695.61
2017-07-28T07:46:18.598Z,99696.99
2017-07-28T07:49:21.909Z,99697.95
2017-07-28T07:52:25.213Z,99715.84
2017-07-28T07:55:29.291Z,99720.30
2017-07-28T07:58:32.598Z,99721.02
2017-07-28T08:01:35.942Z,99729.30
2017-07-28T08:04:39.283Z,99720.63
2017-07-28T08:07:42.628Z,99724.97
2017-07-28T08:10:46.729Z,99728.42
2017-07-28T08:13:50.005Z,99720.63
2017-07-28T08:16:53.331Z,99735.53
2017-07-28T08:19:57.400Z,99731.33
2017-07-28T08:23:00.721Z,99732.45
2017-07-28T08:26:04.061Z,99731.35
2017-07-28T08:29:07.365Z,99728.06
2017-07-28T08:32:10.678Z,99727.77
2017-07-28T08:35:13.962Z,99711.28
2017-07-28T08:38:17.270Z,99709.55
2017-07-28T08:41:20.578Z,99716.53
2017-07-28T08:44:23.882Z,99716.33
2017-07-28T08:47:27.214Z,99711.37
2017-07-28T08:50:30.501Z,99712.95
2017-07-28T08:53:34.605Z,99721.88
2017-07-28T08:56:37.978Z,99710.59
2017-07-28T08:59:41.297Z,99710.48
2017-07-28T09:02:44.634Z,99730.47
2017-07-28T09:05:47.926Z,99723.39
2017-07-28T09:08:51.262Z,99724.90
2017-07-28T09:11:54.578Z,99721.45
2017-07-28T09:14:57.876Z,99727.97
2017-07-28T09:18:01.213Z,99717.55
2017-07-28T09:21:04.496Z,99723.16
2017-07-28T09:24:07.849Z,99724.79
2017-07-28T09:27:11.181Z,99720.48
2017-07-28T09:30:15.222Z,99716.83
2017-07-28T09:33:18.567Z,99728.50
2017-07-28T09:36:21.858Z,99728.42
2017-07-28T09:39:25.178Z,99722.65
2017-07-28T09:42:29.231Z,99735.77
2017-07-28T09:45:32.574Z,99732.98
2017-07-28T09:48:35.893Z,99722.45
2017-07-28T09:51:39.962Z,99736.39
2017-07-28T09:54:43.271Z,99750.84
2017-07-28T09:57:46.559Z,99742.95
2017-07-28T10:00:49.902Z,99746.09
2017-07-28T10:03:53.237Z,99747.69
2017-07-28T10:06:56.743Z,99736.16
2017-07-28T10:10:00.018Z,99743.91
2017-07-28T10:13:03.349Z,99744.86
2017-07-28T10:16:06.648Z,99760.66
2017-07-28T10:19:09.992Z,99756.70
2017-07-28T10:22:13.286Z,99747.25
2017-07-28T10:25:16.602Z,99749.44
2017-07-28T10:28:20.122Z,99752.42
2017-07-28T10:31:23.405Z,99760.98
2017-07-28T10:34:26.721Z,99752.39
2017-07-28T10:37:30.003Z,99755.80
2017-07-28T10:40:33.325Z,99758.47
2017-07-28T10:43:36.631Z,99768.38
2017-07-28T10:46:40.710Z,99758.34
2017-07-28T10:49:44.029Z,99755.03
2017-07-28T10:52:47.336Z,99757.77
2017-07-28T10:55:50.662Z,99778.73
2017-07-28T10:58:53.955Z,99764.30
2017-07-28T11:01:57.269Z,99762.21
2017-07-28T11:05:00.572Z,99774.14
2017-07-28T11:08:04.014Z,99778.63
2017-07-28T11:11:07.330Z,99773.80
2017-07-28T11:14:11.425Z,99777.67
2017-07-28T11:17:15.637Z,99785.57
2017-07-28T11:20:18.969Z,99789.25
2017-07-28T11:23:22.300Z,99778.31
2017-07-28T11:26:25.579Z,99774.17
2017-07-28T11:29:28.890Z,99772.76
2017-07-28T11:32:32.197Z,99773.60
2017-07-28T11:35:35.528Z,99761.38
2017-07-28T11:38:39.620Z,99770.52
2017-07-28T11:41:42.898Z,99767.72
2017-07-28T11:44:46.207Z,99779.11
2017-07-28T11:47:49.511Z,99776.39
2017-07-28T11:50:52.865Z,99776.17
2017-07-28T11:53:56.216Z,99791.70
2017-07-28T11:56:59.490Z,99796.52
2017-07-28T12:00:02.803Z,99795.86
2017-07-28T12:03:06.278Z,99801.31
2017-07-28T12:06:09.760Z,99796.26
2017-07-28T12:09:13.084Z,99808.23
2017-07-28T12:12:16.501Z,99794.64
2017-07-28T12:15:19.805Z,99784.86
2017-07-28T12:18:23.984Z,99784.92
2017-07-28T12:21:27.285Z,99778.23
2017-07-28T12:24:30.621Z,99789.23
2017-07-28T12:27:34.675Z,99791.62
2017-07-28T12:30:37.982Z,99799.09
2017-07-28T12:33:41.421Z,99808.47
2017-07-28T12:36:44.697Z,99808.19
2017-07-28T12:39:48.018Z,99804.52
2017-07-28T12:42:52.079Z,99818.42
2017-07-28T12:45:55.405Z,99798.05
2017-07-28T12:48:58.710Z,99802.80
2017-07-28T12:52:02.822Z,99805.67
2017-07-28T12:55:06.117Z,99795.29
2017-07-28T12:58:09.434Z,99799.23
2017-07-28T13:01:13.510Z,99804.95
2017-07-28T13:04:16.800Z,99813.86
2017-07-28T13:07:20.125Z,99811.02
2017-07-28T13:10:23.402Z,99821.04
2017-07-28T13:13:26.721Z,99820.88
2017-07-28T13:16:30.029Z,99812.91
2017-07-28T13:19:34.126Z,99820.92
2017-07-28T13:22:37.402Z,99809.47
2017-07-28T13:25:40.742Z,99818.03
2017-07-28T13:28:44.052Z,99821.37
2017-07-28T13:31:47.337Z,99820.55
2017-07-28T13:34:50.651Z,99830.95
2017-07-28T13:37:53.935Z,99827.11
2017-07-28T13:40:57.245Z,99842.97
2017-07-28T13:44:00.546Z,99845.48
2017-07-28T13:47:03.876Z,99844.88
2017-07-28T13:50:07.165Z,99839.09
2017-07-28T13:53:10.497Z,99845.30
2017-07-28T13:56:14.569Z,99850.84
2017-07-28T13:59:17.873Z,99853.75
2017-07-28T14:02:21.150Z,99852.88
2017-07-28T14:05:24.483Z,99856.53
2017-07-28T14:08:27.937Z,99851.92
2017-07-28T14:11:31.222Z,99853.88
2017-07-28T14:14:34.539Z,99850.52
2017-07-28T14:17:37.841Z,99849.72
2017-07-28T14:20:41.154Z,99855.41
2017-07-28T14:23:44.429Z,99853.56
2017-07-28T14:26:47.765Z,99862.47
2017-07-28T14:29:51.333Z,99860.64
2017-07-28T14:32:54.641Z,99858.18
2017-07-28T14:35:57.977Z,99858.36
2017-07-28T14:39:01.293Z,99867.36
2017-07-28T14:42:04.602Z,99860.80
2017-07-28T14:45:07.906Z,99865.97
2017-07-28T14:48:11.236Z,99859.50
2017-07-28T14:51:14.538Z,99864.19
2017-07-28T14:54:17.849Z,99865.22
2017-07-28T14:57:21.926Z,99856.33
2017-07-28T15:00:25.210Z,99858.44
2017-07-28T15:03:28.622Z,99866.34
2017-07-28T15:06:31.911Z,99856.97
2017-07-28T15:09:35.220Z,99852.19
2017-07-28T15:12:38.501Z,99848.45
2017-07-28T15:15:41.834Z,99857.72
2017-07-28T15:18:45.877Z,99844.94
2017-07-28T15:21:49.181Z,99847.69
2017-07-28T15:24:52.538Z,99841.30
2017-07-28T15:27:56.617Z,99849.83
2017-07-28T15:30:59.934Z,99844.20
2017-07-28T15:34:03.237Z,99847.41
2017-07-28T15:37:06.556Z,99847.15
2017-07-28T15:40:09.862Z,99851.48
2017-07-28T15:43:13.199Z,99845.11
2017-07-28T15:46:16.518Z,99847.58
2017-07-28T15:49:19.845Z,99839.66
2017-07-28T15:52:23.364Z,99840.67
2017-07-28T15:55:27.447Z,99851.15
2017-07-28T15:58:30.775Z,99848.83
2017-07-28T16:01:34.078Z,99848.39
2017-07-28T16:04:37.420Z,99844.45
2017-07-28T16:07:40.698Z,99847.28
2017-07-28T16:10:44.036Z,99856.84
2017-07-28T16:13:47.773Z,99845.27
2017-07-28T16:16:51.058Z,99851.83
2017-07-28T16:19:54.410Z,99857.08
2017-07-28T16:22:57.781Z,99855.38
2017-07-28T16:26:01.095Z,99860.92
2017-07-28T16:29:04.385Z,99865.34
2017-07-28T16:32:08.493Z,99872.72
2017-07-28T16:35:12.597Z,99867.73
2017-07-28T16:38:15.913Z,99880.72
2017-07-28T16:41:20.022Z,99874.53
2017-07-28T16:44:23.304Z,99883.73
2017-07-28T16:47:26.654Z,99886.13
2017-07-28T16:50:29.940Z,99888.88
2017-07-28T16:53:33.257Z,99887.30
2017-07-28T16:56:36.547Z,99892.80
2017-07-28T16:59:39.866Z,99879.16
2017-07-28T17:02:43.179Z,99887.85
2017-07-28T17:05:46.531Z,99887.84
2017-07-28T17:08:49.840Z,99903.69
2017-07-28T17:11:53.184Z,99903.73
2017-07-28T17:14:56.479Z,99902.91
2017-07-28T17:17:59.792Z,99900.63
2017-07-28T17:21:03.252Z,99897.98
2017-07-28T17:24:06.561Z,99894.72
2017-07-28T17:27:09.877Z,99891.12
2017-07-28T17:30:13.950Z,99896.84
2017-07-28T17:33:17.257Z,99899.82
2017-07-28T17:36:20.556Z,99899.57
2017-07-28T17:39:23.864Z,99893.67
2017-07-28T17:42:27.386Z,99886.55
2017-07-28T17:45:31.457Z,99894.63
2017-07-28T17:48:34.794Z,99888.47
2017-07-28T17:51:38.866Z,99888.75
2017-07-28T17:54:42.196Z,99887.88
2017-07-28T17:57:46.266Z,99891.37
2017-07-28T18:00:49.583Z,99885.88
2017-07-28T18:03:53.354Z,99887.84
2017-07-28T18:06:56.654Z,99882.79
2017-07-28T18:09:59.959Z,99886.11
2017-07-28T18:13:03.266Z,99885.94
2017-07-28T18:16:06.601Z,99884.22
2017-07-28T18:19:10.647Z,99891.67
2017-07-28T18:22:13.978Z,99886.45
2017-07-28T18:25:17.254Z,99889.34
2017-07-28T18:28:20.560Z,99887.59
2017-07-28T18:31:23.842Z,99891.53
2017-07-28T18:34:27.177Z,99893.33
2017-07-28T18:37:30.511Z,99896.22
2017-07-28T18:40:33.790Z,99896.41
2017-07-28T18:43:37.871Z,99901.28
2017-07-28T18:46:41.174Z,99900.77
2017-07-28T18:49:44.485Z,99897.59
2017-07-28T18:52:48.540Z,99892.64
2017-07-28T18:55:51.886Z,99892.12
2017-07-28T18:58:55.415Z,99897.01
2017-07-28T19:01:58.716Z,99887.58
2017-07-28T19:05:02.059Z,99897.83
2017-07-28T19:08:06.133Z,99906.16
2017-07-28T19:11:09.461Z,99906.55
2017-07-28T19:14:12.778Z,99898.95
2017-07-28T19:17:16.912Z,99911.69
2017-07-28T19:20:20.244Z,99908.83
2017-07-28T19:23:23.534Z,99921.80
2017-07-28T19:26:26.849Z,99913.98
2017-07-28T19:29:30.152Z,99921.64
2017-07-28T19:32:33.494Z,99922.99
2017-07-28T19:35:36.923Z,99928.15
2017-07-28T19:38:40.217Z,99925.36
2017-07-28T19:41:43.566Z,99935.65
2017-07-28T19:44:46.888Z,99935.12
2017-07-28T19:47:50.220Z,99942.57
2017-07-28T19:50:53.546Z,99937.75
2017-07-28T19:53:56.876Z,99947.11
2017-07-28T19:57:00.302Z,99945.89
2017-07-28T20:00:03.597Z,99943.73
2017-07-28T20:03:06.942Z,99945.84
2017-07-28T20:06:11.013Z,99948.95
2017-07-28T20:09:14.360Z,99949.60
2017-07-28T20:12:18.437Z,99954.23
2017-07-28T20:15:21.772Z,99964.70
2017-07-28T20:18:25.126Z,99964.25
2017-07-28T20:21:28.567Z,99959.91
2017-07-28T20:24:33.269Z,99968.67
2017-07-28T20:27:37.355Z,99962.91
2017-07-28T20:30:40.705Z,99962.87
2017-07-28T20:33:44.007Z,99970.84
2017-07-28T20:36:47.317Z,99968.05
2017-07-28T20:39:50.625Z,99968.26
2017-07-28T20:42:53.935Z,99972.25
2017-07-28T20:45:57.222Z,99971.58
2017-07-28T20:49:00.571Z,99970.06
2017-07-28T20:52:04.659Z,99980.49
2017-07-28T20:55:07.994Z,99979.42
2017-07-28T20:58:11.281Z,99980.17
2017-07-28T21:01:14.707Z,99977.78
2017-07-28T21:04:18.120Z,99969.25
2017-07-28T21:07:21.399Z,99972.67
2017-07-28T21:10:24.727Z,99971.06
2017-07-28T21:13:28.010Z,99969.60
2017-07-28T21:16:31.346Z,99967.05
2017-07-28T21:19:35.408Z,99966.83
2017-07-28T21:22:38.748Z,99980.06
2017-07-28T21:25:42.049Z,99968.17
2017-07-28T21:28:46.142Z,99966.83
2017-07-28T21:31:49.448Z,99973.73
2017-07-28T21:34:52.792Z,99963.28
2017-07-28T21:37:56.102Z,99970.34
2017-07-28T21:40:59.401Z,99967.27
2017-07-28T21:44:02.767Z,99969.81
2017-07-28T21:47:06.097Z,99957.22
2017-07-28T21:50:09.589Z,99956.90
2017-07-28T21:53:12.962Z,99953.83
2017-07-28T21:56:16.466Z,99966.14
2017-07-28T21:59:20.018Z,99969.40
2017-07-28T22:02:23.377Z,99960.97
2017-07-28T22:05:26.829Z,99958.67
2017-07-28T22:08:30.231Z,99954.12
2017-07-28T22:11:34.330Z,99952.39
2017-07-28T22:14:37.613Z,99948.92
2017-07-28T22:17:40.947Z,99950.14
2017-07-28T22:20:45.006Z,99940.73
2017-07-28T22:23:48.342Z,99952.34
2017-07-28T22:26:51.626Z,99941.78
2017-07-28T22:29:54.969Z,99949.23
2017-07-28T22:32:58.404Z,99935.27
2017-07-28T22:36:01.681Z,99933.79
2017-07-28T22:39:04.989Z,99933.63
2017-07-28T22:42:08.270Z,99929.67
2017-07-28T22:45:11.600Z,99912.78
2017-07-28T22:48:14.885Z,99899.56
2017-07-28T22:51:18.224Z,99911.83
2017-07-28T22:54:22.305Z,99914.36
2017-07-28T22:57:25.605Z,99914.22
2017-07-28T23:00:28.926Z,99911.81
2017-07-28T23:03:32.975Z,99911.56
2017-07-28T23:06:36.285Z,99909.43
2017-07-28T23:09:39.802Z,99896.09
2017-07-28T23:12:43.086Z,99888.41
2017-07-28T23:15:46.399Z,99878.87
2017-07-28T23:18:49.677Z,99871.00
2017-07-28T23:21:52.986Z,99872.64
2017-07-28T23:24:56.261Z,99872.55
2017-07-28T23:27:59.593Z,99873.64
2017-07-28T23:31:02.892Z,99865.31
2017-07-28T23:34:06.226Z,99865.24
2017-07-28T23:37:09.529Z,99863.55
2017-07-28T23:40:12.843Z,99859.99
2017-07-28T23:43:16.256Z,99861.71
2017-07-28T23:46:19.550Z,99861.76
2017-07-28T23:49:22.857Z,99868.66
2017-07-28T23:52:26.161Z,99866.84
2017-07-28T23:55:29.474Z,99856.87
2017-07-28T23:58:32.774Z,99845.96
